Time;durP1;ratioP1;P1;durP2;ratioP2;P2;SDS_P1;SDS_P2;PMS_P1;PMS_P2;Temp;Humidity;BMP_temperature;BMP_pressure;BME280_temperature;BME280_humidity;BME280_pressure;Samples;Min_cycle;Max_cycle;Signal;HPM_P1;HPM_P2
2023/03/11 00:00:12;;;;;;;11.93;7.28;;;;;;;-3.28;47.88;99343.44;5055806;28;20107;-56
2023/03/11 00:02:39;;;;;;;10.88;6.90;;;;;;;-3.26;47.11;99344.25;5039638;28;20102;-56
2023/03/11 00:05:06;;;;;;;9.48;6.43;;;;;;;-3.40;47.08;99314.09;5035658;28;20021;-56
2023/03/11 00:07:32;;;;;;;11.55;6.32;;;;;;;-3.26;47.24;99346.84;5035898;28;20040;-57
2023/03/11 00:09:58;;;;;;;13.70;6.22;;;;;;;-3.17;46.75;99355.28;5037186;28;20037;-50
2023/03/11 00:12:23;;;;;;;10.43;6.25;;;;;;;-3.27;46.12;99326.81;5047141;28;20444;-52
2023/03/11 00:14:49;;;;;;;9.63;6.00;;;;;;;-3.22;45.60;99338.00;5055007;28;20033;-53
2023/03/11 00:17:14;;;;;;;7.90;5.30;;;;;;;-3.25;46.04;99327.63;5055255;28;20025;-52
2023/03/11 00:19:39;;;;;;;12.35;5.95;;;;;;;-3.21;45.94;99324.88;5056090;28;20037;-52
2023/03/11 00:22:05;;;;;;;10.45;5.32;;;;;;;-3.16;45.27;99329.94;5055353;28;20025;-55
2023/03/11 00:24:30;;;;;;;10.13;5.05;;;;;;;-3.27;45.84;99325.03;5054825;28;20033;-55
2023/03/11 00:26:56;;;;;;;8.25;4.70;;;;;;;-3.26;45.41;99323.28;5045061;28;20029;-54
2023/03/11 00:29:21;;;;;;;9.30;6.00;;;;;;;-3.34;45.56;99319.16;5037860;28;20026;-52
2023/03/11 00:31:47;;;;;;;9.63;5.57;;;;;;;-3.29;45.87;99323.41;5045364;28;20084;-55
2023/03/11 00:34:12;;;;;;;12.20;6.20;;;;;;;-3.32;45.91;99322.59;5035250;28;20360;-51
2023/03/11 00:36:38;;;;;;;9.32;5.72;;;;;;;-3.30;45.58;99326.91;5042315;28;20060;-51
2023/03/11 00:39:06;;;;;;;10.90;5.70;;;;;;;-3.27;45.71;99330.28;5047816;28;20037;-54
2023/03/11 00:41:33;;;;;;;11.40;6.00;;;;;;;-3.35;45.45;99332.28;5054205;28;20379;-52
2023/03/11 00:43:59;;;;;;;11.13;5.63;;;;;;;-3.38;45.55;99325.38;5054050;28;20045;-53
2023/03/11 00:46:25;;;;;;;9.25;5.45;;;;;;;-3.29;45.19;99319.00;5047056;28;20028;-56
2023/03/11 00:48:50;;;;;;;12.55;6.03;;;;;;;-3.33;46.11;99320.00;5034373;28;20041;-54
2023/03/11 00:51:16;;;;;;;10.73;5.53;;;;;;;-3.39;45.65;99317.59;5035174;28;20022;-53
2023/03/11 00:53:42;;;;;;;14.25;6.45;;;;;;;-3.34;45.84;99332.25;5032781;28;20030;-54
2023/03/11 00:56:10;;;;;;;10.13;5.30;;;;;;;-3.32;45.91;99321.72;5033813;28;20416;-54
2023/03/11 00:58:36;;;;;;;16.00;5.85;;;;;;;-3.36;45.58;99318.38;5045319;28;20120;-52
2023/03/11 01:01:28;;;;;;;9.10;4.95;;;;;;;-3.12;45.72;99318.47;5040939;28;20064;-60
2023/03/11 01:03:53;;;;;;;7.50;4.80;;;;;;;-3.15;44.99;99334.25;5035239;28;20068;-55
2023/03/11 01:06:19;;;;;;;8.50;4.95;;;;;;;-3.38;45.23;99299.19;5033326;28;20407;-57
2023/03/11 01:08:44;;;;;;;11.10;5.78;;;;;;;-3.17;44.66;99339.56;5034719;28;20036;-55
2023/03/11 01:11:10;;;;;;;13.43;5.35;;;;;;;-3.25;45.26;99327.63;5033131;28;20037;-55
2023/03/11 01:13:35;;;;;;;10.30;5.38;;;;;;;-3.22;45.23;99323.16;5033552;28;20037;-55
2023/03/11 01:16:01;;;;;;;11.80;6.30;;;;;;;-3.23;44.60;99329.31;5016268;28;20440;-56
2023/03/11 01:18:27;;;;;;;9.15;5.68;;;;;;;-3.27;45.26;99325.03;5032948;28;20083;-53
2023/03/11 01:20:52;;;;;;;10.10;5.50;;;;;;;-3.39;45.63;99309.75;5033377;28;20064;-51
2023/03/11 01:23:19;;;;;;;12.98;5.35;;;;;;;-3.16;45.11;99335.19;5033107;28;20372;-52
2023/03/11 01:25:45;;;;;;;13.20;6.10;;;;;;;-3.30;45.46;99324.31;5032869;28;20157;-53
2023/03/11 01:28:11;;;;;;;9.23;5.72;;;;;;;-3.40;45.70;99329.81;5033499;28;20563;-55
2023/03/11 01:30:38;;;;;;;12.80;5.85;;;;;;;-3.40;46.22;99331.59;5050775;28;20463;-57
2023/03/11 01:33:05;;;;;;;13.25;6.05;;;;;;;-3.41;45.55;99322.88;5051324;28;20462;-57
2023/03/11 01:35:32;;;;;;;10.75;6.60;;;;;;;-3.42;46.35;99323.78;5053078;28;20025;-55
2023/03/11 01:37:58;;;;;;;14.32;6.10;;;;;;;-3.43;46.67;99322.06;5039354;28;20052;-57
2023/03/11 01:40:38;;;;;;;9.05;4.72;;;;;;;-3.12;45.58;99328.09;4998610;28;1400300;-57
2023/03/11 01:43:06;;;;;;;9.05;5.55;;;;;;;-3.21;45.78;99331.84;5033975;28;20432;-63
2023/03/11 01:46:01;;;;;;;11.55;6.32;;;;;;;-3.36;46.19;99326.22;5034538;28;20022;-52
2023/03/11 01:48:27;;;;;;;12.25;6.03;;;;;;;-3.50;46.34;99328.41;5033717;28;20033;-55
2023/03/11 01:50:53;;;;;;;13.63;7.35;;;;;;;-3.50;46.17;99331.00;5034094;28;20069;-52
2023/03/11 01:53:18;;;;;;;12.30;6.53;;;;;;;-3.53;46.28;99328.50;5053701;28;20486;-52
2023/03/11 01:55:45;;;;;;;13.57;6.65;;;;;;;-3.73;46.89;99319.47;5034273;28;20158;-52
2023/03/11 01:58:19;;;;;;;13.50;6.68;;;;;;;-3.70;47.09;99319.38;5038517;28;20094;-50
2023/03/11 02:00:46;;;;;;;14.23;7.10;;;;;;;-3.73;47.91;99326.50;5035075;28;20461;-52
2023/03/11 02:03:23;;;;;;;11.40;6.63;;;;;;;-3.73;47.64;99318.66;5053742;28;20112;-53
2023/03/11 02:05:50;;;;;;;14.98;7.68;;;;;;;-3.77;47.07;99287.31;5053393;28;20033;-53
2023/03/11 02:08:15;;;;;;;13.25;7.65;;;;;;;-3.57;47.22;99311.19;5053520;28;20037;-55
2023/03/11 02:10:42;;;;;;;20.55;8.25;;;;;;;-3.55;47.02;99332.91;5052762;28;20124;-55
2023/03/11 02:13:09;;;;;;;13.70;8.15;;;;;;;-3.67;47.99;99315.84;5052625;28;20033;-51
2023/03/11 02:15:35;;;;;;;13.38;7.65;;;;;;;-3.55;47.57;99330.31;5040000;28;20045;-50
2023/03/11 02:18:03;;;;;;;15.40;7.90;;;;;;;-3.54;47.01;99337.25;5032332;28;20029;-53
2023/03/11 02:20:45;;;;;;;15.77;8.55;;;;;;;-3.62;47.57;99325.25;5032972;28;20025;-52
2023/03/11 02:23:16;;;;;;;11.70;7.20;;;;;;;-3.61;47.64;99332.22;5033365;28;20120;-50
2023/03/11 02:25:50;;;;;;;12.05;6.60;;;;;;;-3.42;46.53;99325.53;5034527;28;20048;-55
2023/03/11 02:28:18;;;;;;;14.70;7.38;;;;;;;-3.62;47.32;99321.78;5033053;28;20150;-55
2023/03/11 02:30:45;;;;;;;12.82;7.32;;;;;;;-3.65;47.38;99325.31;5033356;28;20455;-56
2023/03/11 02:33:13;;;;;;;14.65;8.50;;;;;;;-3.71;46.87;99324.69;5033565;28;20161;-52
2023/03/11 02:35:38;;;;;;;15.98;7.72;;;;;;;-3.65;47.16;99317.47;5032970;28;20160;-57
2023/03/11 02:38:04;;;;;;;14.13;8.30;;;;;;;-3.77;47.73;99330.94;5034288;28;20152;-52
2023/03/11 02:40:35;;;;;;;14.80;6.68;;;;;;;-3.77;47.06;99320.47;5033709;28;20076;-57
2023/03/11 02:43:08;;;;;;;12.93;7.25;;;;;;;-3.96;47.30;99294.88;5043178;28;20038;-53
2023/03/11 02:45:38;;;;;;;14.05;8.23;;;;;;;-3.89;47.78;99321.69;5033442;28;20109;-54
2023/03/11 02:48:06;;;;;;;15.82;8.07;;;;;;;-3.85;47.96;99333.78;5033246;28;20079;-55
2023/03/11 02:50:33;;;;;;;14.95;7.15;;;;;;;-3.78;47.65;99331.84;5033842;28;20049;-56
2023/03/11 02:52:58;;;;;;;19.05;9.02;;;;;;;-3.80;48.02;99337.13;5031970;28;20029;-53
2023/03/11 02:55:24;;;;;;;17.95;8.68;;;;;;;-3.89;48.07;99327.78;5032845;28;20467;-56
2023/03/11 02:57:49;;;;;;;17.23;10.18;;;;;;;-4.11;49.22;99319.72;5040138;28;20029;-56
2023/03/11 03:00:16;;;;;;;19.67;10.15;;;;;;;-4.09;49.39;99320.53;5046520;28;20029;-53
2023/03/11 03:02:43;;;;;;;21.48;10.02;;;;;;;-4.05;49.45;99332.59;5032722;28;20049;-51
2023/03/11 03:05:10;;;;;;;20.50;10.93;;;;;;;-3.95;48.97;99342.81;5032355;28;20040;-59
2023/03/11 03:07:36;;;;;;;20.73;10.65;;;;;;;-4.01;49.54;99317.69;5044761;28;20025;-56
2023/03/11 03:10:03;;;;;;;19.70;10.30;;;;;;;-4.06;49.24;99309.13;5052047;28;20451;-53
2023/03/11 03:12:29;;;;;;;21.42;11.60;;;;;;;-4.12;49.65;99311.91;5051848;28;20040;-55
2023/03/11 03:14:54;;;;;;;22.33;9.85;;;;;;;-4.04;49.98;99317.78;5043239;28;20037;-58
2023/03/11 03:17:20;;;;;;;24.67;12.30;;;;;;;-4.12;50.26;99317.13;5032888;28;20136;-52
2023/03/11 03:19:45;;;;;;;18.63;10.23;;;;;;;-4.18;50.48;99332.09;5032302;28;20395;-54
2023/03/11 03:22:10;;;;;;;25.50;11.75;;;;;;;-4.13;50.92;99325.88;5032255;28;20037;-55
2023/03/11 03:24:36;;;;;;;22.52;11.15;;;;;;;-4.21;51.05;99347.03;5032106;28;20029;-56
2023/03/11 03:27:01;;;;;;;21.98;9.95;;;;;;;-4.18;51.52;99334.69;5043623;28;20439;-53
2023/03/11 03:29:27;;;;;;;18.83;9.77;;;;;;;-4.14;52.32;99332.00;5051076;28;20544;-52
2023/03/11 03:31:53;;;;;;;21.25;11.02;;;;;;;-4.21;52.71;99331.34;5051078;28;20033;-49
2023/03/11 03:34:19;;;;;;;22.48;11.02;;;;;;;-4.15;52.72;99335.50;5052018;28;20045;-49
2023/03/11 03:36:44;;;;;;;25.00;12.73;;;;;;;-4.26;53.55;99314.91;5051611;28;20506;-50
2023/03/11 03:39:09;;;;;;;31.02;15.95;;;;;;;-4.19;53.83;99317.31;5052427;28;20029;-54
2023/03/11 03:41:35;;;;;;;30.38;14.95;;;;;;;-4.00;54.20;99322.00;5038150;28;20514;-56
2023/03/11 03:44:01;;;;;;;32.00;15.68;;;;;;;-4.17;54.48;99280.69;5032213;28;20514;-53
2023/03/11 03:46:26;;;;;;;28.95;15.73;;;;;;;-4.18;54.97;99289.41;5040222;28;20096;-53
2023/03/11 03:48:51;;;;;;;26.75;13.48;;;;;;;-4.12;55.32;99301.44;5052234;28;20036;-56
2023/03/11 03:51:17;;;;;;;24.08;12.20;;;;;;;-3.91;55.58;99326.97;5039368;28;20150;-53
2023/03/11 03:53:45;;;;;;;25.00;11.82;;;;;;;-3.97;55.83;99308.00;5049383;28;20066;-56
2023/03/11 03:56:13;;;;;;;19.95;10.55;;;;;;;-4.17;55.81;99285.91;5052039;28;20037;-54
2023/03/11 03:58:39;;;;;;;26.63;12.82;;;;;;;-4.21;57.02;99310.44;5052126;28;20171;-50
2023/03/11 04:01:05;;;;;;;23.73;13.05;;;;;;;-4.26;57.80;99302.69;5043728;28;20393;-54
2023/03/11 04:03:31;;;;;;;23.85;13.05;;;;;;;-4.34;58.38;99321.22;5032321;28;20037;-50
2023/03/11 04:06:25;;;;;;;24.52;14.00;;;;;;;-4.41;57.81;99279.59;5040427;28;20115;-50
2023/03/11 04:08:51;;;;;;;24.08;13.20;;;;;;;-4.25;58.32;99307.03;5050675;28;20069;-53
2023/03/11 04:11:17;;;;;;;26.25;14.07;;;;;;;-4.08;57.59;99313.53;5046148;28;20448;-52
2023/03/11 04:13:43;;;;;;;31.45;15.40;;;;;;;-4.12;57.96;99304.91;5031859;28;20025;-57
2023/03/11 04:16:15;;;;;;;29.70;14.77;;;;;;;-4.31;58.94;99299.38;5023523;28;20532;-55
2023/03/11 04:18:40;;;;;;;26.88;14.25;;;;;;;-4.11;58.50;99308.38;5031117;28;20112;-55
2023/03/11 04:21:06;;;;;;;27.58;14.80;;;;;;;-4.18;58.26;99295.50;5031701;28;20161;-53
2023/03/11 04:23:33;;;;;;;27.05;13.77;;;;;;;-4.29;59.16;99302.78;5031889;28;20072;-54
2023/03/11 04:25:59;;;;;;;28.27;16.67;;;;;;;-4.29;58.77;99281.00;5031345;28;20072;-53
2023/03/11 04:28:24;;;;;;;30.33;16.38;;;;;;;-4.21;58.64;99294.75;5031738;28;20037;-56
2023/03/11 04:30:50;;;;;;;28.23;15.45;;;;;;;-4.19;58.74;99282.47;5038614;28;20368;-55
2023/03/11 04:33:15;;;;;;;29.95;16.83;;;;;;;-4.29;59.13;99281.88;5024403;28;20483;-55
2023/03/11 04:35:41;;;;;;;29.23;15.85;;;;;;;-4.55;59.07;99251.25;5043989;28;20025;-58
2023/03/11 04:38:06;;;;;;;30.20;16.20;;;;;;;-4.30;58.95;99288.00;5043280;28;20041;-62
2023/03/11 04:40:32;;;;;;;28.42;16.20;;;;;;;-4.33;60.12;99281.09;5044683;28;20459;-58
2023/03/11 04:42:57;;;;;;;30.45;14.70;;;;;;;-4.15;58.69;99278.00;5044119;28;20414;-53
2023/03/11 04:45:23;;;;;;;32.97;18.10;;;;;;;-4.20;59.27;99294.69;5043241;28;20021;-53
2023/03/11 04:47:50;;;;;;;29.15;16.45;;;;;;;-4.22;59.50;99272.09;5045381;28;20439;-55
2023/03/11 04:50:16;;;;;;;27.63;15.52;;;;;;;-4.26;59.64;99266.09;5042584;28;20110;-56
2023/03/11 04:52:42;;;;;;;28.33;16.50;;;;;;;-4.26;59.50;99257.41;5035092;28;20022;-52
2023/03/11 04:55:08;;;;;;;32.13;17.13;;;;;;;-4.20;59.94;99262.47;5034814;28;20048;-54
2023/03/11 04:57:33;;;;;;;25.15;14.88;;;;;;;-4.18;59.96;99268.50;5036581;28;20030;-51
2023/03/11 04:59:59;;;;;;;30.15;15.02;;;;;;;-4.26;59.59;99218.19;5045107;28;20455;-53
2023/03/11 05:02:24;;;;;;;23.38;12.68;;;;;;;-3.98;59.56;99280.09;5035558;28;20368;-54
2023/03/11 05:04:50;;;;;;;28.02;15.55;;;;;;;-4.22;60.01;99257.28;5043765;28;20029;-55
2023/03/11 05:07:15;;;;;;;26.40;15.25;;;;;;;-4.21;60.59;99271.22;5054171;28;20035;-56
2023/03/11 05:09:41;;;;;;;27.38;14.23;;;;;;;-4.12;59.92;99264.84;5054659;28;20123;-54
2023/03/11 05:12:10;;;;;;;23.13;13.02;;;;;;;-4.08;59.75;99269.94;5054771;28;20368;-54
2023/03/11 05:14:36;;;;;;;19.73;10.93;;;;;;;-4.12;60.09;99260.47;5054262;28;20033;-56
2023/03/11 05:17:01;;;;;;;22.65;12.82;;;;;;;-4.19;59.88;99251.13;5037100;28;20037;-54
2023/03/11 05:19:29;;;;;;;17.23;9.80;;;;;;;-4.13;59.27;99252.66;5034699;28;20067;-52
2023/03/11 05:21:55;;;;;;;19.10;11.73;;;;;;;-4.20;60.28;99246.78;5043400;28;20029;-51
2023/03/11 05:24:21;;;;;;;22.48;11.13;;;;;;;-4.10;59.78;99249.94;5050176;28;20025;-49
2023/03/11 05:26:46;;;;;;;25.13;12.90;;;;;;;-4.18;60.00;99237.13;5044772;28;20433;-57
2023/03/11 05:29:12;;;;;;;20.67;11.82;;;;;;;-4.13;60.64;99260.50;5054458;28;20337;-52
2023/03/11 05:31:37;;;;;;;26.33;12.20;;;;;;;-4.10;60.41;99252.56;5053745;28;20506;-50
2023/03/11 05:34:03;;;;;;;18.75;11.23;;;;;;;-3.98;59.82;99252.22;5053943;28;20025;-48
2023/03/11 05:36:29;;;;;;;14.48;8.40;;;;;;;-3.80;59.46;99266.47;5054332;28;20063;-50
2023/03/11 05:38:54;;;;;;;18.88;8.35;;;;;;;-3.67;58.67;99250.41;5053180;28;20037;-51
2023/03/11 05:41:20;;;;;;;22.45;11.90;;;;;;;-3.86;59.86;99253.59;5044772;28;20076;-50
2023/03/11 05:43:45;;;;;;;19.92;11.07;;;;;;;-3.77;59.81;99249.84;5034235;28;20040;-50
2023/03/11 05:46:11;;;;;;;21.13;12.10;;;;;;;-3.74;59.03;99247.13;5045198;28;20435;-51
2023/03/11 05:48:37;;;;;;;26.95;13.52;;;;;;;-3.76;59.26;99259.41;5053807;28;20036;-53
2023/03/11 05:51:07;;;;;;;20.00;10.95;;;;;;;-3.62;58.90;99257.22;5053561;28;20044;-48
2023/03/11 05:53:33;;;;;;;25.50;14.05;;;;;;;-3.72;59.12;99242.72;5053815;28;20025;-50
2023/03/11 05:55:59;;;;;;;26.98;14.18;;;;;;;-3.64;59.77;99248.53;5053968;28;20033;-49
2023/03/11 05:58:26;;;;;;;25.83;14.75;;;;;;;-3.50;59.28;99239.41;5053664;28;20121;-52
2023/03/11 06:00:51;;;;;;;25.80;14.07;;;;;;;-3.54;59.32;99222.94;5053100;28;20514;-48
2023/03/11 06:03:17;;;;;;;25.65;14.77;;;;;;;-3.56;59.34;99202.97;5053740;28;20108;-51
2023/03/11 06:05:46;;;;;;;23.10;12.60;;;;;;;-3.22;58.88;99265.56;5047718;28;20045;-55
2023/03/11 06:08:12;;;;;;;23.85;14.45;;;;;;;-3.26;59.40;99245.59;5050385;28;20032;-52
2023/03/11 06:10:38;;;;;;;17.45;10.07;;;;;;;-3.05;58.64;99238.78;5052665;28;20796;-53
2023/03/11 06:13:04;;;;;;;24.85;13.93;;;;;;;-3.12;59.11;99237.31;5053386;28;20044;-49
2023/03/11 06:15:31;;;;;;;24.60;14.13;;;;;;;-3.07;58.98;99243.22;5053631;28;20044;-50
2023/03/11 06:17:56;;;;;;;22.40;13.15;;;;;;;-2.91;59.15;99229.59;5053299;28;20041;-51
2023/03/11 06:20:22;;;;;;;21.58;9.70;;;;;;;-2.73;57.43;99241.22;5052630;28;20359;-52
2023/03/11 06:22:48;;;;;;;18.33;9.95;;;;;;;-2.78;57.99;99241.38;5053331;28;20044;-49
2023/03/11 06:25:14;;;;;;;20.45;12.38;;;;;;;-2.92;57.96;99236.59;5053303;28;20360;-49
2023/03/11 06:27:39;;;;;;;20.70;11.88;;;;;;;-3.05;59.03;99238.78;5053039;28;20048;-49
2023/03/11 06:30:05;;;;;;;20.15;11.13;;;;;;;-2.81;58.28;99251.94;5052821;28;20039;-48
2023/03/11 06:32:33;;;;;;;20.48;11.57;;;;;;;-3.34;59.37;99193.50;5052860;28;20044;-51
2023/03/11 06:34:58;;;;;;;18.95;9.75;;;;;;;-3.01;58.58;99246.53;5044563;28;20402;-52
2023/03/11 06:37:24;;;;;;;18.48;11.02;;;;;;;-3.11;59.22;99257.34;5032533;28;20033;-51
2023/03/11 06:39:53;;;;;;;20.65;10.77;;;;;;;-3.13;59.29;99232.09;5032882;28;20026;-58
2023/03/11 06:42:19;;;;;;;18.42;8.98;;;;;;;-3.27;59.44;99219.47;5032796;28;20041;-50
2023/03/11 06:44:47;;;;;;;18.30;10.32;;;;;;;-3.10;59.15;99227.63;5032702;28;20052;-54
2023/03/11 06:47:13;;;;;;;17.25;9.45;;;;;;;-3.15;59.55;99210.34;5032823;28;20029;-54
2023/03/11 06:49:40;;;;;;;13.80;7.07;;;;;;;-2.84;58.53;99223.25;5032511;28;20039;-50
2023/03/11 06:52:07;;;;;;;15.13;8.45;;;;;;;-3.05;58.96;99220.47;5032606;28;20060;-50
2023/03/11 06:54:32;;;;;;;14.25;9.13;;;;;;;-3.16;58.98;99222.56;5031262;28;20384;-49
2023/03/11 06:56:57;;;;;;;17.58;9.75;;;;;;;-3.09;59.05;99231.97;5032210;28;20033;-53
2023/03/11 06:59:23;;;;;;;14.55;9.75;;;;;;;-3.08;59.55;99214.47;5034805;28;20422;-51
2023/03/11 07:01:48;;;;;;;15.80;8.82;;;;;;;-3.19;59.02;99201.75;5052708;28;20416;-54
2023/03/11 07:04:14;;;;;;;16.20;9.40;;;;;;;-3.16;60.25;99217.34;5052015;28;20029;-51
2023/03/11 07:06:40;;;;;;;17.27;9.25;;;;;;;-3.06;59.72;99210.91;5052623;28;20048;-49
2023/03/11 07:09:05;;;;;;;19.00;8.77;;;;;;;-2.86;59.56;99214.59;5052393;28;20116;-51
2023/03/11 07:11:31;;;;;;;19.48;8.57;;;;;;;-2.75;58.55;99207.19;5051863;28;20116;-51
2023/03/11 07:13:56;;;;;;;16.45;9.63;;;;;;;-2.68;59.43;99202.59;5051094;28;20182;-49
2023/03/11 07:16:25;;;;;;;13.02;7.38;;;;;;;-2.41;58.65;99193.75;5052512;28;20101;-62
2023/03/11 07:18:51;;;;;;;16.42;9.77;;;;;;;-2.46;58.35;99213.13;5051667;28;20033;-51
2023/03/11 07:21:19;;;;;;;15.25;8.77;;;;;;;-2.49;58.06;99208.00;5052113;28;20121;-50
2023/03/11 07:23:46;;;;;;;16.10;8.98;;;;;;;-2.49;58.63;99197.50;5052196;28;20396;-51
2023/03/11 07:26:13;;;;;;;13.85;7.80;;;;;;;-2.45;58.32;99204.34;5033043;28;20037;-50
2023/03/11 07:28:39;;;;;;;18.67;8.70;;;;;;;-2.64;58.90;99195.47;5031830;28;20171;-50
2023/03/11 07:31:09;;;;;;;15.55;9.57;;;;;;;-2.75;58.92;99190.63;5032287;28;20029;-51
2023/03/11 07:33:35;;;;;;;15.00;9.10;;;;;;;-2.84;60.03;99190.94;5032405;28;20030;-49
2023/03/11 07:36:05;;;;;;;16.38;8.75;;;;;;;-2.77;60.38;99182.81;5031827;28;20114;-51
2023/03/11 07:38:30;;;;;;;16.58;8.65;;;;;;;-2.65;59.52;99173.66;5032002;28;20112;-48
2023/03/11 07:40:58;;;;;;;17.67;9.27;;;;;;;-2.53;59.38;99174.97;5033812;28;20460;-52
2023/03/11 07:43:24;;;;;;;14.60;8.48;;;;;;;-2.41;58.41;99183.25;5031305;28;20044;-61
2023/03/11 07:45:50;;;;;;;18.00;8.43;;;;;;;-2.51;58.71;99157.41;5031945;28;20033;-51
2023/03/11 07:48:16;;;;;;;15.07;8.32;;;;;;;-2.55;58.81;99155.81;5032058;28;20392;-56
2023/03/11 07:50:41;;;;;;;11.52;7.45;;;;;;;-2.50;57.75;99126.81;5046550;28;20020;-51
2023/03/11 07:53:07;;;;;;;16.73;7.88;;;;;;;-2.49;57.83;99139.84;5052237;28;20445;-49
2023/03/11 07:55:33;;;;;;;14.68;7.65;;;;;;;-2.57;57.56;99123.56;5051697;28;20405;-50
2023/03/11 07:57:58;;;;;;;18.00;8.57;;;;;;;-2.75;58.18;99139.06;5051773;28;20103;-52
2023/03/11 08:00:24;;;;;;;13.63;7.60;;;;;;;-2.83;58.44;99162.06;5033318;28;20086;-51
2023/03/11 08:02:49;;;;;;;13.55;8.32;;;;;;;-3.08;59.45;99084.38;5032365;28;20037;-51
2023/03/11 08:05:15;;;;;;;12.38;7.72;;;;;;;-2.75;59.19;99135.59;5031719;28;20450;-50
2023/03/11 08:07:41;;;;;;;12.63;7.38;;;;;;;-2.76;59.69;99129.50;5031621;28;20423;-49
2023/03/11 08:10:06;;;;;;;14.48;8.32;;;;;;;-2.69;59.94;99121.41;5033690;28;20113;-52
2023/03/11 08:12:32;;;;;;;11.45;5.72;;;;;;;-2.40;57.98;99116.84;5035970;28;20030;-48
2023/03/11 08:14:57;;;;;;;15.30;7.65;;;;;;;-2.65;58.75;99096.81;5052100;28;20060;-49
2023/03/11 08:17:23;;;;;;;12.75;7.78;;;;;;;-2.44;58.81;99131.81;5055780;28;20363;-50
2023/03/11 08:19:49;;;;;;;13.10;7.93;;;;;;;-2.40;58.05;99111.59;5055748;28;20041;-54
2023/03/11 08:22:14;;;;;;;11.38;6.55;;;;;;;-2.21;57.61;99116.97;5055794;28;20029;-52
2023/03/11 08:24:40;;;;;;;11.15;4.88;;;;;;;-2.09;57.22;99090.22;5054954;28;20040;-52
2023/03/11 08:27:05;;;;;;;11.43;7.05;;;;;;;-2.29;57.58;99098.91;5055095;28;20061;-52
2023/03/11 08:29:30;;;;;;;10.90;6.15;;;;;;;-2.25;57.48;99083.91;5053412;28;20056;-52
2023/03/11 08:31:56;;;;;;;8.98;5.93;;;;;;;-2.29;57.84;99091.03;5055009;28;20108;-62
2023/03/11 08:34:21;;;;;;;11.23;7.05;;;;;;;-2.41;58.99;99079.25;5055003;28;20025;-53
2023/03/11 08:36:47;;;;;;;10.10;5.85;;;;;;;-2.23;58.06;99085.53;5054771;28;20083;-52
2023/03/11 08:39:12;;;;;;;6.68;4.03;;;;;;;-2.01;57.39;99100.41;5054795;28;20033;-50
2023/03/11 08:41:38;;;;;;;12.38;7.40;;;;;;;-2.09;58.10;99076.28;5054927;28;20106;-51
2023/03/11 08:44:04;;;;;;;12.45;6.97;;;;;;;-1.85;57.03;99099.78;5053447;28;20037;-53
2023/03/11 08:46:35;;;;;;;9.55;6.28;;;;;;;-1.77;56.58;99101.19;5054421;28;20459;-50
2023/03/11 08:49:01;;;;;;;11.63;6.13;;;;;;;-1.81;57.12;99093.50;5054750;28;20033;-53
2023/03/11 08:51:28;;;;;;;10.73;6.90;;;;;;;-2.01;57.20;99118.78;5054602;28;20029;-50
2023/03/11 08:53:54;;;;;;;9.48;6.32;;;;;;;-2.04;57.56;99088.28;5043795;28;20120;-51
2023/03/11 08:56:20;;;;;;;11.15;6.60;;;;;;;-1.94;57.46;99106.28;5033895;28;20117;-50
2023/03/11 08:58:45;;;;;;;11.23;6.32;;;;;;;-1.79;57.09;99081.16;5033604;28;20389;-52
2023/03/11 09:01:11;;;;;;;10.80;6.70;;;;;;;-1.75;56.88;99067.84;5034318;28;20029;-54
2023/03/11 09:03:37;;;;;;;9.40;4.72;;;;;;;-1.49;55.93;99097.41;5034927;28;20030;-51
2023/03/11 09:06:10;;;;;;;4.53;3.20;;;;;;;-1.47;55.69;99066.69;5052973;28;20037;-54
2023/03/11 09:08:35;;;;;;;13.80;6.15;;;;;;;-1.82;56.30;99065.56;5054216;28;20041;-52
2023/03/11 09:11:01;;;;;;;12.60;7.57;;;;;;;-2.17;57.66;99061.72;5054668;28;20025;-56
2023/03/11 09:13:27;;;;;;;9.88;6.40;;;;;;;-2.27;58.18;99073.47;5054125;28;20025;-51
2023/03/11 09:15:53;;;;;;;11.30;5.95;;;;;;;-2.28;58.21;99066.53;5053980;28;20029;-52
2023/03/11 09:18:19;;;;;;;14.15;6.30;;;;;;;-2.19;57.95;99063.50;5047765;28;20047;-50
2023/03/11 09:20:45;;;;;;;14.05;6.75;;;;;;;-2.11;57.77;99054.50;5034240;28;20041;-54
2023/03/11 09:23:13;;;;;;;11.80;6.55;;;;;;;-2.20;58.53;99061.81;5034226;28;20033;-53
2023/03/11 09:25:39;;;;;;;8.77;4.63;;;;;;;-2.47;58.16;99019.22;5034325;28;20034;-51
2023/03/11 09:28:05;;;;;;;7.32;4.43;;;;;;;-2.35;59.14;99057.19;5034450;28;20080;-51
2023/03/11 09:30:30;;;;;;;10.98;6.32;;;;;;;-2.53;59.90;99057.00;5034097;28;20041;-51
2023/03/11 09:32:56;;;;;;;9.07;4.95;;;;;;;-2.64;60.29;99056.59;5038963;28;20031;-53
2023/03/11 09:35:22;;;;;;;9.57;4.22;;;;;;;-2.51;60.14;99046.47;5050384;28;20345;-50
2023/03/11 09:37:47;;;;;;;6.90;3.70;;;;;;;-2.56;60.33;99054.50;5054419;28;20106;-51
2023/03/11 09:40:16;;;;;;;7.97;4.75;;;;;;;-2.63;60.96;99053.03;5052557;28;20021;-52
2023/03/11 09:43:05;;;;;;;10.73;6.03;;;;;;;-2.83;61.63;99061.66;5053634;28;20080;-52
2023/03/11 09:45:35;;;;;;;9.05;5.82;;;;;;;-2.97;61.21;99022.88;5054195;28;20033;-57
2023/03/11 09:48:18;;;;;;;9.80;4.35;;;;;;;-2.56;60.93;99045.78;5053238;28;20029;-61
2023/03/11 09:51:09;;;;;;;7.05;4.30;;;;;;;-2.68;60.72;99050.59;5053169;28;20086;-54
2023/03/11 09:53:41;;;;;;;10.00;5.10;;;;;;;-2.69;60.33;99043.66;5053619;28;20495;-50
2023/03/11 09:56:14;;;;;;;7.32;4.60;;;;;;;-2.63;60.19;99043.41;5053833;28;20175;-51
2023/03/11 09:58:58;;;;;;;14.30;7.15;;;;;;;-2.81;59.99;99012.66;5043115;28;20025;-53
2023/03/11 10:01:36;;;;;;;10.43;7.03;;;;;;;-2.87;60.61;99034.75;5032953;28;20037;-50
2023/03/11 10:04:17;;;;;;;9.40;5.45;;;;;;;-2.77;60.69;99006.41;5043941;28;20104;-61
2023/03/11 10:06:45;;;;;;;13.77;7.70;;;;;;;-2.79;60.75;98990.75;5053802;28;20037;-51
2023/03/11 10:09:34;;;;;;;10.75;6.95;;;;;;;-2.45;59.49;98993.78;5053361;28;20036;-52
2023/03/11 10:12:27;;;;;;;8.57;5.35;;;;;;;-2.54;59.50;98983.66;5053158;28;20040;-51
2023/03/11 10:14:53;;;;;;;10.50;5.35;;;;;;;-2.47;59.46;98985.16;5053465;28;20543;-50
2023/03/11 10:17:40;;;;;;;10.73;6.43;;;;;;;-2.34;59.02;98977.63;5053525;28;20128;-53
2023/03/11 10:20:33;;;;;;;12.20;6.47;;;;;;;-2.33;59.00;98969.69;5052154;28;20320;-49
2023/03/11 10:23:07;;;;;;;12.95;8.02;;;;;;;-2.31;59.00;98980.13;5048192;28;20037;-51
2023/03/11 10:25:57;;;;;;;10.27;6.40;;;;;;;-2.18;58.36;98965.56;5033504;28;20057;-60
2023/03/11 10:28:48;;;;;;;9.90;5.70;;;;;;;-2.25;58.33;98950.19;5032732;28;20092;-53
2023/03/11 10:31:29;;;;;;;12.23;7.68;;;;;;;-2.51;59.44;98958.19;5031994;28;20132;-53
2023/03/11 10:34:03;;;;;;;15.18;8.40;;;;;;;-2.51;59.25;98941.63;5032277;28;20465;-52
2023/03/11 10:36:41;;;;;;;13.95;8.05;;;;;;;-2.53;59.73;98939.06;5033173;28;20033;-54
2023/03/11 10:39:10;;;;;;;11.18;5.43;;;;;;;-2.49;58.94;98938.00;5031814;28;20517;-51
2023/03/11 10:41:50;;;;;;;9.18;5.05;;;;;;;-2.52;59.11;98938.13;5032310;28;20124;-55
2023/03/11 10:44:29;;;;;;;11.55;7.47;;;;;;;-2.61;60.07;98904.47;5032799;28;20068;-49
2023/03/11 10:46:55;;;;;;;12.02;7.70;;;;;;;-2.52;59.33;98908.47;5032585;28;20086;-52
2023/03/11 10:49:21;;;;;;;10.38;5.95;;;;;;;-2.45;59.56;98904.66;5046465;28;20391;-54
2023/03/11 10:51:52;;;;;;;10.93;7.78;;;;;;;-2.54;60.17;98903.28;5052413;28;20474;-49
2023/03/11 10:54:47;;;;;;;10.45;6.57;;;;;;;-2.38;59.23;98879.06;5051766;28;20390;-52
2023/03/11 10:57:27;;;;;;;10.77;7.17;;;;;;;-2.13;58.74;98893.72;5051846;28;20055;-51
2023/03/11 10:59:54;;;;;;;13.07;7.78;;;;;;;-2.22;58.92;98895.81;5052294;28;20110;-51
2023/03/11 11:02:32;;;;;;;8.73;5.30;;;;;;;-2.12;59.23;98903.31;5052079;28;20444;-50
2023/03/11 11:05:17;;;;;;;13.63;8.07;;;;;;;-2.28;58.90;98888.22;5052371;28;20094;-49
2023/03/11 11:07:45;;;;;;;10.68;7.38;;;;;;;-2.41;59.55;98895.75;5052467;28;20119;-53
2023/03/11 11:10:10;;;;;;;10.73;5.43;;;;;;;-2.17;59.44;98887.75;5038075;28;20060;-52
2023/03/11 11:12:56;;;;;;;8.13;4.82;;;;;;;-2.14;59.09;98898.09;5033575;28;20448;-59
2023/03/11 11:15:22;;;;;;;13.50;8.13;;;;;;;-2.26;59.29;98886.38;5052158;28;20049;-52
2023/03/11 11:17:48;;;;;;;11.63;6.97;;;;;;;-2.37;59.77;98880.75;5052256;28;20036;-50
2023/03/11 11:20:18;;;;;;;15.32;9.27;;;;;;;-2.57;60.12;98844.88;5052016;28;20029;-52
2023/03/11 11:22:58;;;;;;;13.48;8.75;;;;;;;-2.39;60.19;98849.34;5051737;28;20028;-52
2023/03/11 11:25:37;;;;;;;12.45;8.05;;;;;;;-2.33;59.96;98856.94;5052323;28;20045;-50
2023/03/11 11:28:13;;;;;;;16.95;9.77;;;;;;;-2.32;60.07;98857.81;5045187;28;20025;-52